BTI31C EDDH-EKCH
Flight info
| Callsign | BTI31C |
|---|---|
| Flight time | 0h 35m |
| Altitude | 23000 |
| Route | LUGEG3G/33 LUGEG P605 GESKA/N0363F220 Z711 MONAK MONAK4C |
| Aircraft | A320/H-VGDW/C |
Departure
| Time | 2026-05-04 14:14 |
|---|---|
| Airport | Hamburg Helmut Schmidt Airport (EDDH) |
Arrival
| Time | 2026-05-04 14:49 |
|---|---|
| Airport | Copenhagen Kastrup Airport (EKCH) |
| Time | Latitude | Longitude | Altitude | Speed | Heading |
|---|---|---|---|---|---|
| 2026-05-04 14:02 | 53.63005 | 10.00371 | 49 ft | 0 kts | 122° |
| 2026-05-04 14:07 | 53.63014 | 10.00347 | 46 ft | 3 kts | 122° |
| 2026-05-04 14:07 | 53.63024 | 10.00320 | 48 ft | 3 kts | 122° |
| 2026-05-04 14:07 | 53.63033 | 10.00294 | 43 ft | 3 kts | 122° |
| 2026-05-04 14:07 | 53.63043 | 10.00267 | 47 ft | 3 kts | 122° |
| 2026-05-04 14:08 | 53.63053 | 10.00242 | 43 ft | 3 kts | 122° |
| 2026-05-04 14:08 | 53.63062 | 10.00216 | 48 ft | 3 kts | 122° |
| 2026-05-04 14:08 | 53.63073 | 10.00194 | 47 ft | 2 kts | 168° |
| 2026-05-04 14:08 | 53.63082 | 10.00193 | 48 ft | 0 kts | 205° |
| 2026-05-04 14:10 | 53.63053 | 10.00166 | 48 ft | 10 kts | 211° |
| 2026-05-04 14:11 | 53.62996 | 10.00103 | 49 ft | 10 kts | 213° |
| 2026-05-04 14:11 | 53.62935 | 10.00028 | 49 ft | 6 kts | 230° |
| 2026-05-04 14:11 | 53.62912 | 9.99960 | 48 ft | 8 kts | 242° |
| 2026-05-04 14:12 | 53.62905 | 9.99939 | 49 ft | 0 kts | 242° |
| 2026-05-04 14:12 | 53.62867 | 9.99775 | 49 ft | 10 kts | 274° |
| 2026-05-04 14:13 | 53.62917 | 9.99702 | 50 ft | 19 kts | 332° |
| 2026-05-04 14:13 | 53.63263 | 9.99403 | 49 ft | 89 kts | 333° |
| 2026-05-04 14:13 | 53.64005 | 9.98765 | 45 ft | 147 kts | 334° |
| 2026-05-04 14:13 | 53.64931 | 9.97989 | 586 ft | 145 kts | 329° |
| 2026-05-04 14:14 | 53.65827 | 9.97169 | 1160 ft | 148 kts | 328° |
| 2026-05-04 14:14 | 53.67851 | 9.95198 | 2216 ft | 191 kts | 329° |
| 2026-05-04 14:14 | 53.69194 | 9.94550 | 2895 ft | 214 kts | 351° |
| 2026-05-04 14:15 | 53.72245 | 9.94717 | 4915 ft | 224 kts | 9° |
| 2026-05-04 14:15 | 53.74691 | 9.98265 | 6218 ft | 266 kts | 60° |
| 2026-05-04 14:16 | 53.76361 | 10.04254 | 7667 ft | 290 kts | 64° |
| 2026-05-04 14:16 | 53.77222 | 10.07380 | 8564 ft | 295 kts | 64° |
| 2026-05-04 14:17 | 53.79012 | 10.13731 | 10326 ft | 308 kts | 63° |
| 2026-05-04 14:17 | 53.79647 | 10.15956 | 10623 ft | 323 kts | 63° |
| 2026-05-04 14:17 | 53.82089 | 10.24494 | 11942 ft | 361 kts | 63° |
| 2026-05-04 14:18 | 53.83195 | 10.28365 | 12747 ft | 368 kts | 63° |
| 2026-05-04 14:18 | 53.85071 | 10.34941 | 14166 ft | 377 kts | 63° |
| 2026-05-04 14:19 | 53.87382 | 10.43065 | 15700 ft | 389 kts | 63° |
| 2026-05-04 14:19 | 53.88569 | 10.47247 | 16472 ft | 395 kts | 63° |
| 2026-05-04 14:19 | 53.89770 | 10.51489 | 17242 ft | 400 kts | 63° |
| 2026-05-04 14:19 | 53.90966 | 10.55719 | 17944 ft | 406 kts | 63° |
| 2026-05-04 14:20 | 53.92196 | 10.60075 | 18582 ft | 412 kts | 63° |
| 2026-05-04 14:20 | 53.93467 | 10.64483 | 19209 ft | 417 kts | 60° |
| 2026-05-04 14:20 | 53.95077 | 10.68608 | 19837 ft | 420 kts | 50° |
| 2026-05-04 14:21 | 53.98937 | 10.76113 | 21071 ft | 427 kts | 43° |
| 2026-05-04 14:21 | 54.01013 | 10.79773 | 21684 ft | 432 kts | 43° |
| 2026-05-04 14:21 | 54.03126 | 10.83465 | 22302 ft | 437 kts | 43° |
| 2026-05-04 14:21 | 54.05256 | 10.87217 | 22796 ft | 442 kts | 43° |
| 2026-05-04 14:22 | 54.07383 | 10.91020 | 22967 ft | 443 kts | 43° |
| 2026-05-04 14:22 | 54.09503 | 10.94857 | 22971 ft | 444 kts | 44° |
| 2026-05-04 14:22 | 54.11585 | 10.98665 | 22967 ft | 445 kts | 44° |
| 2026-05-04 14:22 | 54.13692 | 11.02553 | 22966 ft | 445 kts | 44° |
| 2026-05-04 14:23 | 54.17895 | 11.10364 | 22966 ft | 446 kts | 44° |
| 2026-05-04 14:23 | 54.19993 | 11.14275 | 22966 ft | 446 kts | 44° |
| 2026-05-04 14:23 | 54.22068 | 11.18148 | 22966 ft | 446 kts | 44° |
| 2026-05-04 14:24 | 54.24162 | 11.22065 | 22968 ft | 446 kts | 45° |
| 2026-05-04 14:24 | 54.26256 | 11.25989 | 22966 ft | 447 kts | 45° |
| 2026-05-04 14:24 | 54.28360 | 11.29938 | 22966 ft | 447 kts | 45° |
| 2026-05-04 14:24 | 54.30454 | 11.33873 | 22966 ft | 447 kts | 45° |
| 2026-05-04 14:25 | 54.32523 | 11.37766 | 22968 ft | 447 kts | 45° |
| 2026-05-04 14:25 | 54.36721 | 11.45686 | 22966 ft | 447 kts | 45° |
| 2026-05-04 14:25 | 54.38816 | 11.49642 | 22966 ft | 447 kts | 45° |
| 2026-05-04 14:26 | 54.40914 | 11.53605 | 22963 ft | 447 kts | 45° |
| 2026-05-04 14:26 | 54.43008 | 11.57562 | 22966 ft | 447 kts | 45° |
| 2026-05-04 14:26 | 54.45102 | 11.61524 | 22997 ft | 447 kts | 45° |
| 2026-05-04 14:26 | 54.47169 | 11.65442 | 22965 ft | 447 kts | 45° |
| 2026-05-04 14:27 | 54.49271 | 11.69429 | 22965 ft | 447 kts | 45° |
| 2026-05-04 14:27 | 54.51336 | 11.73351 | 22963 ft | 447 kts | 45° |
| 2026-05-04 14:27 | 54.53428 | 11.77329 | 22963 ft | 447 kts | 45° |
| 2026-05-04 14:27 | 54.55518 | 11.81311 | 22963 ft | 447 kts | 45° |
| 2026-05-04 14:28 | 54.57611 | 11.85303 | 22961 ft | 447 kts | 45° |
| 2026-05-04 14:28 | 54.59696 | 11.89289 | 22960 ft | 447 kts | 45° |
| 2026-05-04 14:28 | 54.61888 | 11.92946 | 22952 ft | 441 kts | 33° |
| 2026-05-04 14:28 | 54.64384 | 11.96055 | 22962 ft | 442 kts | 31° |
| 2026-05-04 14:29 | 54.69463 | 12.02086 | 22961 ft | 442 kts | 30° |
| 2026-05-04 14:29 | 54.74533 | 12.07984 | 22936 ft | 440 kts | 29° |
| 2026-05-04 14:30 | 54.77064 | 12.10926 | 22328 ft | 437 kts | 29° |
| 2026-05-04 14:30 | 54.79570 | 12.13843 | 21670 ft | 429 kts | 30° |
| 2026-05-04 14:30 | 54.84423 | 12.19504 | 20490 ft | 409 kts | 30° |
| 2026-05-04 14:31 | 54.86732 | 12.22201 | 19933 ft | 400 kts | 30° |
| 2026-05-04 14:31 | 54.91284 | 12.27523 | 18841 ft | 390 kts | 29° |
| 2026-05-04 14:32 | 54.95808 | 12.32816 | 17643 ft | 391 kts | 30° |
| 2026-05-04 14:32 | 54.98036 | 12.35427 | 17095 ft | 388 kts | 30° |
| 2026-05-04 14:32 | 55.00273 | 12.38050 | 16550 ft | 386 kts | 30° |
| 2026-05-04 14:32 | 55.02503 | 12.40653 | 16001 ft | 384 kts | 30° |
| 2026-05-04 14:33 | 55.04726 | 12.43247 | 15460 ft | 382 kts | 30° |
| 2026-05-04 14:33 | 55.06937 | 12.45830 | 14909 ft | 381 kts | 30° |
| 2026-05-04 14:33 | 55.09106 | 12.48367 | 14371 ft | 379 kts | 30° |
| 2026-05-04 14:33 | 55.11297 | 12.50934 | 13840 ft | 377 kts | 30° |
| 2026-05-04 14:34 | 55.13481 | 12.53495 | 13249 ft | 376 kts | 30° |
| 2026-05-04 14:34 | 55.15652 | 12.56046 | 12706 ft | 373 kts | 30° |
| 2026-05-04 14:34 | 55.17773 | 12.58542 | 12153 ft | 370 kts | 30° |
| 2026-05-04 14:34 | 55.19883 | 12.61030 | 11955 ft | 357 kts | 30° |
| 2026-05-04 14:35 | 55.21898 | 12.63411 | 11855 ft | 342 kts | 29° |
| 2026-05-04 14:35 | 55.23948 | 12.65311 | 11676 ft | 325 kts | 17° |
| 2026-05-04 14:35 | 55.26037 | 12.66620 | 11446 ft | 314 kts | 13° |
| 2026-05-04 14:35 | 55.28111 | 12.67795 | 11041 ft | 312 kts | 12° |
| 2026-05-04 14:36 | 55.30148 | 12.68933 | 10642 ft | 310 kts | 13° |
| 2026-05-04 14:36 | 55.32204 | 12.70088 | 10249 ft | 309 kts | 13° |
| 2026-05-04 14:36 | 55.34244 | 12.71242 | 9867 ft | 307 kts | 13° |
| 2026-05-04 14:36 | 55.36275 | 12.72397 | 9429 ft | 305 kts | 13° |
| 2026-05-04 14:37 | 55.38289 | 12.73546 | 9015 ft | 302 kts | 13° |
| 2026-05-04 14:37 | 55.40287 | 12.74689 | 8606 ft | 299 kts | 13° |
| 2026-05-04 14:37 | 55.42260 | 12.75819 | 8223 ft | 296 kts | 13° |
| 2026-05-04 14:37 | 55.44200 | 12.76931 | 7813 ft | 294 kts | 13° |
| 2026-05-04 14:38 | 55.46136 | 12.78042 | 7401 ft | 292 kts | 13° |
| 2026-05-04 14:38 | 55.48059 | 12.79148 | 7065 ft | 287 kts | 13° |
| 2026-05-04 14:38 | 55.49954 | 12.80240 | 6767 ft | 284 kts | 13° |
| 2026-05-04 14:38 | 55.51803 | 12.81304 | 6485 ft | 282 kts | 13° |
| 2026-05-04 14:39 | 55.53669 | 12.82378 | 6184 ft | 281 kts | 13° |
| 2026-05-04 14:39 | 55.55521 | 12.83486 | 5873 ft | 280 kts | 15° |
| 2026-05-04 14:39 | 55.57335 | 12.84728 | 5597 ft | 278 kts | 17° |
| 2026-05-04 14:40 | 55.60910 | 12.87288 | 5012 ft | 275 kts | 18° |
| 2026-05-04 14:40 | 55.62621 | 12.88716 | 4739 ft | 276 kts | 28° |
| 2026-05-04 14:40 | 55.64161 | 12.90775 | 4438 ft | 277 kts | 36° |
| 2026-05-04 14:40 | 55.65613 | 12.93015 | 4172 ft | 276 kts | 38° |
| 2026-05-04 14:41 | 55.67049 | 12.95280 | 3913 ft | 275 kts | 38° |
| 2026-05-04 14:41 | 55.68455 | 12.97500 | 3627 ft | 272 kts | 38° |
| 2026-05-04 14:41 | 55.71377 | 13.01691 | 3042 ft | 266 kts | 24° |
| 2026-05-04 14:42 | 55.74833 | 13.02418 | 2535 ft | 244 kts | 336° |
| 2026-05-04 14:42 | 55.76188 | 13.00885 | 2475 ft | 220 kts | 310° |
| 2026-05-04 14:42 | 55.76945 | 12.98709 | 2494 ft | 196 kts | 286° |
| 2026-05-04 14:43 | 55.76969 | 12.96478 | 2486 ft | 179 kts | 258° |
| 2026-05-04 14:43 | 55.76594 | 12.94366 | 2489 ft | 179 kts | 253° |
| 2026-05-04 14:43 | 55.76170 | 12.92284 | 2494 ft | 179 kts | 254° |
| 2026-05-04 14:43 | 55.75764 | 12.90187 | 2492 ft | 179 kts | 254° |
| 2026-05-04 14:44 | 55.75379 | 12.88074 | 2485 ft | 180 kts | 255° |
| 2026-05-04 14:44 | 55.74809 | 12.86104 | 2493 ft | 184 kts | 238° |
| 2026-05-04 14:44 | 55.73962 | 12.84492 | 2474 ft | 169 kts | 228° |
| 2026-05-04 14:44 | 55.73126 | 12.83201 | 2470 ft | 149 kts | 227° |
| 2026-05-04 14:45 | 55.72357 | 12.82018 | 2482 ft | 144 kts | 227° |
| 2026-05-04 14:45 | 55.71611 | 12.80854 | 2454 ft | 145 kts | 227° |
| 2026-05-04 14:45 | 55.70860 | 12.79672 | 2270 ft | 144 kts | 229° |
| 2026-05-04 14:45 | 55.70105 | 12.78495 | 2059 ft | 143 kts | 227° |
| 2026-05-04 14:46 | 55.69354 | 12.77328 | 1861 ft | 143 kts | 227° |
| 2026-05-04 14:46 | 55.68623 | 12.76195 | 1677 ft | 140 kts | 227° |
| 2026-05-04 14:46 | 55.67890 | 12.75055 | 1474 ft | 139 kts | 227° |
| 2026-05-04 14:46 | 55.67165 | 12.73930 | 1282 ft | 138 kts | 228° |
| 2026-05-04 14:47 | 55.66439 | 12.72801 | 1092 ft | 139 kts | 226° |
| 2026-05-04 14:47 | 55.65743 | 12.71724 | 902 ft | 128 kts | 226° |
| 2026-05-04 14:47 | 55.65088 | 12.70708 | 712 ft | 124 kts | 226° |
| 2026-05-04 14:47 | 55.64425 | 12.69703 | 599 ft | 125 kts | 226° |
| 2026-05-04 14:48 | 55.63772 | 12.68697 | 413 ft | 123 kts | 227° |
| 2026-05-04 14:48 | 55.63134 | 12.67693 | 219 ft | 122 kts | 228° |
| 2026-05-04 14:48 | 55.62498 | 12.66698 | 69 ft | 122 kts | 228° |
| 2026-05-04 14:48 | 55.61886 | 12.65739 | 25 ft | 107 kts | 222° |
| 2026-05-04 14:49 | 55.61405 | 12.65000 | 27 ft | 63 kts | 221° |
| 2026-05-04 14:49 | 55.61224 | 12.64470 | 22 ft | 29 kts | 249° |
| 2026-05-04 14:49 | 55.61193 | 12.64181 | 20 ft | 19 kts | 285° |
| 2026-05-04 14:49 | 55.61206 | 12.64141 | 18 ft | 0 kts | 312° |
| 2026-05-04 14:50 | 55.61212 | 12.64131 | 20 ft | 5 kts | 319° |
| 2026-05-04 14:50 | 55.61235 | 12.64111 | 19 ft | 3 kts | 345° |
| 2026-05-04 14:50 | 55.61286 | 12.64126 | 19 ft | 15 kts | 26° |
| 2026-05-04 14:50 | 55.61379 | 12.64229 | 20 ft | 16 kts | 33° |
| 2026-05-04 14:51 | 55.61472 | 12.64338 | 22 ft | 15 kts | 33° |
| 2026-05-04 14:51 | 55.61565 | 12.64442 | 22 ft | 16 kts | 31° |
| 2026-05-04 14:51 | 55.61662 | 12.64547 | 24 ft | 16 kts | 27° |
| 2026-05-04 14:51 | 55.61772 | 12.64548 | 23 ft | 16 kts | 347° |
| 2026-05-04 14:52 | 55.61878 | 12.64513 | 25 ft | 16 kts | 350° |
| 2026-05-04 14:52 | 55.61992 | 12.64476 | 25 ft | 17 kts | 348° |
| 2026-05-04 14:52 | 55.62070 | 12.64450 | 24 ft | 3 kts | 348° |
| 2026-05-04 14:52 | 55.62100 | 12.64439 | 24 ft | 6 kts | 348° |
| 2026-05-04 14:53 | 55.62156 | 12.64419 | 20 ft | 10 kts | 348° |
| 2026-05-04 14:53 | 55.62226 | 12.64397 | 20 ft | 10 kts | 353° |
| 2026-05-04 14:53 | 55.62289 | 12.64404 | 22 ft | 9 kts | 12° |
| 2026-05-04 14:53 | 55.62359 | 12.64437 | 25 ft | 12 kts | 16° |
| 2026-05-04 14:54 | 55.62404 | 12.64449 | 22 ft | 2 kts | 349° |
| 2026-05-04 14:54 | 55.62442 | 12.64401 | 22 ft | 10 kts | 313° |
| 2026-05-04 14:54 | 55.62485 | 12.64307 | 24 ft | 10 kts | 306° |
| 2026-05-04 14:54 | 55.62522 | 12.64219 | 25 ft | 9 kts | 317° |
| 2026-05-04 14:55 | 55.62573 | 12.64216 | 26 ft | 7 kts | 38° |
| 2026-05-04 14:55 | 55.62593 | 12.64287 | 26 ft | 7 kts | 69° |
| 2026-05-04 14:55 | 55.62615 | 12.64377 | 26 ft | 9 kts | 66° |
| 2026-05-04 14:55 | 55.62629 | 12.64433 | 26 ft | 0 kts | 67° |